sensor_id;sensor_type;location;lat;lon;timestamp;P1;durP1;ratioP1;P2;durP2;ratioP2
7080;SDS011;3582;51.506;11.948;2022-09-13T00:00:38;19.17;;;17.27;;
7080;SDS011;3582;51.506;11.948;2022-09-13T00:03:05;17.90;;;15.83;;
7080;SDS011;3582;51.506;11.948;2022-09-13T00:05:31;19.63;;;17.93;;
7080;SDS011;3582;51.506;11.948;2022-09-13T00:07:57;19.33;;;17.40;;
7080;SDS011;3582;51.506;11.948;2022-09-13T00:10:23;17.47;;;15.90;;
7080;SDS011;3582;51.506;11.948;2022-09-13T00:12:50;19.00;;;17.33;;
7080;SDS011;3582;51.506;11.948;2022-09-13T00:15:16;18.70;;;17.03;;
7080;SDS011;3582;51.506;11.948;2022-09-13T00:17:42;19.33;;;17.60;;
7080;SDS011;3582;51.506;11.948;2022-09-13T00:20:08;19.70;;;17.90;;
7080;SDS011;3582;51.506;11.948;2022-09-13T00:22:35;21.00;;;18.90;;
7080;SDS011;3582;51.506;11.948;2022-09-13T00:25:02;19.27;;;17.63;;
7080;SDS011;3582;51.506;11.948;2022-09-13T00:27:27;18.80;;;17.17;;
7080;SDS011;3582;51.506;11.948;2022-09-13T00:29:53;19.57;;;17.67;;
7080;SDS011;3582;51.506;11.948;2022-09-13T00:32:19;25.00;;;18.53;;
7080;SDS011;3582;51.506;11.948;2022-09-13T00:34:45;20.40;;;18.50;;
7080;SDS011;3582;51.506;11.948;2022-09-13T00:37:11;20.80;;;18.83;;
7080;SDS011;3582;51.506;11.948;2022-09-13T00:39:37;20.40;;;18.27;;
7080;SDS011;3582;51.506;11.948;2022-09-13T00:42:03;20.83;;;18.83;;
7080;SDS011;3582;51.506;11.948;2022-09-13T00:47:14;20.43;;;18.57;;
7080;SDS011;3582;51.506;11.948;2022-09-13T00:49:41;21.87;;;19.60;;
7080;SDS011;3582;51.506;11.948;2022-09-13T00:52:09;20.53;;;18.43;;
7080;SDS011;3582;51.506;11.948;2022-09-13T00:54:43;21.50;;;19.60;;
7080;SDS011;3582;51.506;11.948;2022-09-13T00:57:10;22.70;;;20.27;;
7080;SDS011;3582;51.506;11.948;2022-09-13T00:59:37;19.47;;;17.53;;
7080;SDS011;3582;51.506;11.948;2022-09-13T01:02:05;21.00;;;19.00;;
7080;SDS011;3582;51.506;11.948;2022-09-13T01:04:31;20.83;;;19.03;;
7080;SDS011;3582;51.506;11.948;2022-09-13T01:07:03;21.77;;;19.87;;
7080;SDS011;3582;51.506;11.948;2022-09-13T01:09:31;20.27;;;18.17;;
7080;SDS011;3582;51.506;11.948;2022-09-13T01:12:02;21.07;;;19.13;;
7080;SDS011;3582;51.506;11.948;2022-09-13T01:14:35;22.10;;;19.73;;
7080;SDS011;3582;51.506;11.948;2022-09-13T01:17:02;20.47;;;18.60;;
7080;SDS011;3582;51.506;11.948;2022-09-13T01:19:28;25.03;;;22.47;;
7080;SDS011;3582;51.506;11.948;2022-09-13T01:24:36;22.87;;;20.67;;
7080;SDS011;3582;51.506;11.948;2022-09-13T01:29:37;22.23;;;19.93;;
7080;SDS011;3582;51.506;11.948;2022-09-13T01:32:12;22.83;;;20.60;;
7080;SDS011;3582;51.506;11.948;2022-09-13T01:37:45;22.90;;;20.67;;
7080;SDS011;3582;51.506;11.948;2022-09-13T01:41:02;20.70;;;18.53;;
7080;SDS011;3582;51.506;11.948;2022-09-13T01:43:15;22.53;;;20.43;;
7080;SDS011;3582;51.506;11.948;2022-09-13T01:46:05;22.13;;;20.10;;
7080;SDS011;3582;51.506;11.948;2022-09-13T01:51:05;27.40;;;22.30;;
7080;SDS011;3582;51.506;11.948;2022-09-13T01:53:41;22.67;;;20.43;;
7080;SDS011;3582;51.506;11.948;2022-09-13T01:56:09;22.73;;;20.60;;
7080;SDS011;3582;51.506;11.948;2022-09-13T01:58:41;23.70;;;21.50;;
7080;SDS011;3582;51.506;11.948;2022-09-13T02:04:09;22.63;;;20.43;;
7080;SDS011;3582;51.506;11.948;2022-09-13T02:06:37;24.43;;;21.77;;
7080;SDS011;3582;51.506;11.948;2022-09-13T02:09:09;26.63;;;24.20;;
7080;SDS011;3582;51.506;11.948;2022-09-13T02:11:36;23.23;;;20.83;;
7080;SDS011;3582;51.506;11.948;2022-09-13T02:14:26;27.63;;;22.33;;
7080;SDS011;3582;51.506;11.948;2022-09-13T02:16:57;24.07;;;21.70;;
7080;SDS011;3582;51.506;11.948;2022-09-13T02:19:46;22.87;;;20.60;;
7080;SDS011;3582;51.506;11.948;2022-09-13T02:22:14;25.33;;;20.67;;
7080;SDS011;3582;51.506;11.948;2022-09-13T02:24:41;25.63;;;23.03;;
7080;SDS011;3582;51.506;11.948;2022-09-13T02:27:11;25.37;;;22.73;;
7080;SDS011;3582;51.506;11.948;2022-09-13T02:29:38;24.00;;;21.57;;
7080;SDS011;3582;51.506;11.948;2022-09-13T02:32:13;23.03;;;20.83;;
7080;SDS011;3582;51.506;11.948;2022-09-13T02:34:42;25.20;;;20.43;;
7080;SDS011;3582;51.506;11.948;2022-09-13T02:37:11;31.27;;;25.37;;
7080;SDS011;3582;51.506;11.948;2022-09-13T02:39:40;20.13;;;18.03;;
7080;SDS011;3582;51.506;11.948;2022-09-13T02:42:07;20.53;;;18.33;;
7080;SDS011;3582;51.506;11.948;2022-09-13T02:44:37;23.47;;;18.83;;
7080;SDS011;3582;51.506;11.948;2022-09-13T02:55:04;22.37;;;19.27;;
7080;SDS011;3582;51.506;11.948;2022-09-13T03:00:17;21.73;;;18.10;;
7080;SDS011;3582;51.506;11.948;2022-09-13T03:02:43;22.80;;;20.50;;
7080;SDS011;3582;51.506;11.948;2022-09-13T03:05:10;24.53;;;19.50;;
7080;SDS011;3582;51.506;11.948;2022-09-13T03:07:36;21.03;;;18.83;;
7080;SDS011;3582;51.506;11.948;2022-09-13T03:10:04;22.33;;;20.17;;
7080;SDS011;3582;51.506;11.948;2022-09-13T03:12:34;21.60;;;19.27;;
7080;SDS011;3582;51.506;11.948;2022-09-13T03:15:10;20.87;;;18.77;;
7080;SDS011;3582;51.506;11.948;2022-09-13T03:17:52;20.47;;;18.20;;
7080;SDS011;3582;51.506;11.948;2022-09-13T03:25:49;19.63;;;17.83;;
7080;SDS011;3582;51.506;11.948;2022-09-13T03:28:23;20.37;;;18.27;;
7080;SDS011;3582;51.506;11.948;2022-09-13T03:31:00;19.33;;;17.00;;
7080;SDS011;3582;51.506;11.948;2022-09-13T03:33:30;19.53;;;17.63;;
7080;SDS011;3582;51.506;11.948;2022-09-13T03:36:04;20.07;;;17.90;;
7080;SDS011;3582;51.506;11.948;2022-09-13T03:38:36;19.13;;;17.10;;
7080;SDS011;3582;51.506;11.948;2022-09-13T03:41:08;22.23;;;19.77;;
7080;SDS011;3582;51.506;11.948;2022-09-13T03:43:37;21.87;;;19.67;;
7080;SDS011;3582;51.506;11.948;2022-09-13T03:46:20;20.70;;;18.70;;
7080;SDS011;3582;51.506;11.948;2022-09-13T03:48:47;19.93;;;18.03;;
7080;SDS011;3582;51.506;11.948;2022-09-13T03:51:15;21.00;;;18.40;;
7080;SDS011;3582;51.506;11.948;2022-09-13T03:53:42;22.10;;;19.67;;
7080;SDS011;3582;51.506;11.948;2022-09-13T03:56:11;22.70;;;20.30;;
7080;SDS011;3582;51.506;11.948;2022-09-13T03:58:37;22.40;;;20.10;;
7080;SDS011;3582;51.506;11.948;2022-09-13T04:01:03;22.97;;;18.90;;
7080;SDS011;3582;51.506;11.948;2022-09-13T04:03:29;22.13;;;19.80;;
7080;SDS011;3582;51.506;11.948;2022-09-13T04:05:55;21.70;;;19.57;;
7080;SDS011;3582;51.506;11.948;2022-09-13T04:08:21;22.63;;;18.87;;
7080;SDS011;3582;51.506;11.948;2022-09-13T04:10:48;20.10;;;18.10;;
7080;SDS011;3582;51.506;11.948;2022-09-13T04:13:16;22.03;;;18.07;;
7080;SDS011;3582;51.506;11.948;2022-09-13T04:15:42;19.80;;;16.97;;
7080;SDS011;3582;51.506;11.948;2022-09-13T04:18:07;23.90;;;18.87;;
7080;SDS011;3582;51.506;11.948;2022-09-13T04:20:35;19.87;;;17.23;;
7080;SDS011;3582;51.506;11.948;2022-09-13T04:23:01;19.87;;;17.87;;
7080;SDS011;3582;51.506;11.948;2022-09-13T04:25:27;20.30;;;15.83;;
7080;SDS011;3582;51.506;11.948;2022-09-13T04:27:53;18.83;;;16.03;;
7080;SDS011;3582;51.506;11.948;2022-09-13T04:30:20;16.23;;;14.33;;
7080;SDS011;3582;51.506;11.948;2022-09-13T04:32:46;18.67;;;16.53;;
7080;SDS011;3582;51.506;11.948;2022-09-13T04:35:12;17.43;;;15.70;;
7080;SDS011;3582;51.506;11.948;2022-09-13T04:37:38;17.97;;;16.20;;
7080;SDS011;3582;51.506;11.948;2022-09-13T04:40:05;19.10;;;17.20;;
7080;SDS011;3582;51.506;11.948;2022-09-13T04:42:32;17.83;;;16.03;;
7080;SDS011;3582;51.506;11.948;2022-09-13T04:44:58;20.00;;;17.90;;
7080;SDS011;3582;51.506;11.948;2022-09-13T04:47:24;19.87;;;16.80;;
7080;SDS011;3582;51.506;11.948;2022-09-13T04:49:50;18.80;;;15.10;;
7080;SDS011;3582;51.506;11.948;2022-09-13T04:52:15;24.23;;;18.23;;
7080;SDS011;3582;51.506;11.948;2022-09-13T04:54:41;18.00;;;15.57;;
7080;SDS011;3582;51.506;11.948;2022-09-13T04:57:07;20.57;;;14.93;;
7080;SDS011;3582;51.506;11.948;2022-09-13T04:59:33;23.20;;;17.60;;
7080;SDS011;3582;51.506;11.948;2022-09-13T05:01:59;18.00;;;16.07;;
7080;SDS011;3582;51.506;11.948;2022-09-13T05:04:25;18.83;;;16.07;;
7080;SDS011;3582;51.506;11.948;2022-09-13T05:06:51;18.40;;;16.17;;
7080;SDS011;3582;51.506;11.948;2022-09-13T05:09:17;17.03;;;15.43;;
7080;SDS011;3582;51.506;11.948;2022-09-13T05:11:43;22.90;;;16.70;;
7080;SDS011;3582;51.506;11.948;2022-09-13T05:14:09;18.47;;;16.43;;
7080;SDS011;3582;51.506;11.948;2022-09-13T05:16:35;25.30;;;16.43;;
7080;SDS011;3582;51.506;11.948;2022-09-13T05:19:01;17.63;;;15.77;;
7080;SDS011;3582;51.506;11.948;2022-09-13T05:21:28;22.30;;;16.70;;
7080;SDS011;3582;51.506;11.948;2022-09-13T05:23:54;21.13;;;15.90;;
7080;SDS011;3582;51.506;11.948;2022-09-13T05:26:21;23.53;;;15.43;;
7080;SDS011;3582;51.506;11.948;2022-09-13T05:28:50;21.60;;;13.57;;
7080;SDS011;3582;51.506;11.948;2022-09-13T05:31:17;26.33;;;15.57;;
7080;SDS011;3582;51.506;11.948;2022-09-13T05:33:44;16.83;;;14.93;;
7080;SDS011;3582;51.506;11.948;2022-09-13T05:36:11;19.73;;;13.27;;
7080;SDS011;3582;51.506;11.948;2022-09-13T05:38:37;25.00;;;13.70;;
7080;SDS011;3582;51.506;11.948;2022-09-13T05:41:03;17.53;;;13.87;;
7080;SDS011;3582;51.506;11.948;2022-09-13T05:43:30;16.27;;;14.50;;
7080;SDS011;3582;51.506;11.948;2022-09-13T05:46:02;15.53;;;13.50;;
7080;SDS011;3582;51.506;11.948;2022-09-13T05:48:28;14.57;;;13.17;;
7080;SDS011;3582;51.506;11.948;2022-09-13T05:50:54;14.57;;;12.90;;
7080;SDS011;3582;51.506;11.948;2022-09-13T05:53:20;21.87;;;13.90;;
7080;SDS011;3582;51.506;11.948;2022-09-13T05:55:46;17.30;;;14.90;;
7080;SDS011;3582;51.506;11.948;2022-09-13T05:58:12;19.03;;;14.47;;
7080;SDS011;3582;51.506;11.948;2022-09-13T06:00:38;19.43;;;14.90;;
7080;SDS011;3582;51.506;11.948;2022-09-13T06:03:04;19.77;;;13.83;;
7080;SDS011;3582;51.506;11.948;2022-09-13T06:05:30;17.47;;;14.80;;
7080;SDS011;3582;51.506;11.948;2022-09-13T06:07:56;18.80;;;14.80;;
7080;SDS011;3582;51.506;11.948;2022-09-13T06:10:22;20.00;;;16.20;;
7080;SDS011;3582;51.506;11.948;2022-09-13T06:12:49;18.33;;;16.50;;
7080;SDS011;3582;51.506;11.948;2022-09-13T06:15:15;19.90;;;14.30;;
7080;SDS011;3582;51.506;11.948;2022-09-13T06:17:41;18.60;;;16.10;;
7080;SDS011;3582;51.506;11.948;2022-09-13T06:20:07;17.10;;;14.53;;
7080;SDS011;3582;51.506;11.948;2022-09-13T06:22:34;15.73;;;13.73;;
7080;SDS011;3582;51.506;11.948;2022-09-13T06:25:00;18.03;;;15.83;;
7080;SDS011;3582;51.506;11.948;2022-09-13T06:27:27;16.40;;;14.77;;
7080;SDS011;3582;51.506;11.948;2022-09-13T06:29:54;16.23;;;13.53;;
7080;SDS011;3582;51.506;11.948;2022-09-13T06:32:20;17.50;;;15.67;;
7080;SDS011;3582;51.506;11.948;2022-09-13T06:34:46;17.40;;;15.43;;
7080;SDS011;3582;51.506;11.948;2022-09-13T06:37:12;17.63;;;15.73;;
7080;SDS011;3582;51.506;11.948;2022-09-13T06:39:38;16.97;;;15.37;;
7080;SDS011;3582;51.506;11.948;2022-09-13T06:42:04;18.20;;;15.97;;
7080;SDS011;3582;51.506;11.948;2022-09-13T06:44:30;17.33;;;15.40;;
7080;SDS011;3582;51.506;11.948;2022-09-13T06:46:56;19.77;;;17.67;;
7080;SDS011;3582;51.506;11.948;2022-09-13T06:49:22;20.50;;;15.87;;
7080;SDS011;3582;51.506;11.948;2022-09-13T06:51:48;17.77;;;15.40;;
7080;SDS011;3582;51.506;11.948;2022-09-13T06:54:14;18.10;;;16.30;;
7080;SDS011;3582;51.506;11.948;2022-09-13T06:56:40;18.63;;;16.70;;
7080;SDS011;3582;51.506;11.948;2022-09-13T06:59:06;21.60;;;17.47;;
7080;SDS011;3582;51.506;11.948;2022-09-13T07:03:59;18.00;;;15.30;;
7080;SDS011;3582;51.506;11.948;2022-09-13T07:06:27;17.80;;;15.53;;
7080;SDS011;3582;51.506;11.948;2022-09-13T07:08:53;20.13;;;17.47;;
7080;SDS011;3582;51.506;11.948;2022-09-13T07:11:20;17.20;;;15.30;;
7080;SDS011;3582;51.506;11.948;2022-09-13T07:13:47;22.03;;;17.37;;
7080;SDS011;3582;51.506;11.948;2022-09-13T07:16:13;19.10;;;15.23;;
7080;SDS011;3582;51.506;11.948;2022-09-13T07:18:39;21.10;;;16.50;;
7080;SDS011;3582;51.506;11.948;2022-09-13T07:21:06;17.23;;;15.37;;
7080;SDS011;3582;51.506;11.948;2022-09-13T07:23:33;17.87;;;16.10;;
7080;SDS011;3582;51.506;11.948;2022-09-13T07:25:59;18.33;;;14.90;;
7080;SDS011;3582;51.506;11.948;2022-09-13T07:28:32;15.33;;;13.53;;
7080;SDS011;3582;51.506;11.948;2022-09-13T07:33:31;19.13;;;14.00;;
7080;SDS011;3582;51.506;11.948;2022-09-13T07:35:57;14.63;;;13.03;;
7080;SDS011;3582;51.506;11.948;2022-09-13T07:38:25;15.40;;;13.80;;
7080;SDS011;3582;51.506;11.948;2022-09-13T07:40:54;16.40;;;11.90;;
7080;SDS011;3582;51.506;11.948;2022-09-13T07:43:21;14.00;;;12.50;;
7080;SDS011;3582;51.506;11.948;2022-09-13T07:45:47;12.93;;;11.67;;
7080;SDS011;3582;51.506;11.948;2022-09-13T07:48:13;17.20;;;13.47;;
7080;SDS011;3582;51.506;11.948;2022-09-13T07:50:39;14.53;;;13.13;;
7080;SDS011;3582;51.506;11.948;2022-09-13T07:53:05;14.17;;;11.20;;
7080;SDS011;3582;51.506;11.948;2022-09-13T07:55:31;17.47;;;13.33;;
7080;SDS011;3582;51.506;11.948;2022-09-13T07:57:56;12.43;;;11.20;;
7080;SDS011;3582;51.506;11.948;2022-09-13T08:00:23;13.13;;;11.43;;
7080;SDS011;3582;51.506;11.948;2022-09-13T08:02:49;16.57;;;13.70;;
7080;SDS011;3582;51.506;11.948;2022-09-13T08:05:15;13.80;;;11.53;;
7080;SDS011;3582;51.506;11.948;2022-09-13T08:07:41;16.83;;;12.67;;
7080;SDS011;3582;51.506;11.948;2022-09-13T08:10:07;14.53;;;12.40;;
7080;SDS011;3582;51.506;11.948;2022-09-13T08:12:33;12.97;;;11.77;;
7080;SDS011;3582;51.506;11.948;2022-09-13T08:14:59;13.73;;;11.80;;
7080;SDS011;3582;51.506;11.948;2022-09-13T08:17:25;15.00;;;13.53;;
7080;SDS011;3582;51.506;11.948;2022-09-13T08:19:51;15.13;;;11.97;;
7080;SDS011;3582;51.506;11.948;2022-09-13T08:22:17;12.53;;;11.23;;
7080;SDS011;3582;51.506;11.948;2022-09-13T08:24:44;15.83;;;11.20;;
7080;SDS011;3582;51.506;11.948;2022-09-13T08:27:09;13.07;;;10.70;;
7080;SDS011;3582;51.506;11.948;2022-09-13T08:29:37;16.57;;;11.37;;
7080;SDS011;3582;51.506;11.948;2022-09-13T08:32:03;14.17;;;10.47;;
7080;SDS011;3582;51.506;11.948;2022-09-13T08:34:29;17.80;;;12.30;;
7080;SDS011;3582;51.506;11.948;2022-09-13T08:36:55;17.43;;;12.13;;
7080;SDS011;3582;51.506;11.948;2022-09-13T08:39:21;11.27;;;10.07;;
7080;SDS011;3582;51.506;11.948;2022-09-13T08:44:26;11.73;;;10.57;;
7080;SDS011;3582;51.506;11.948;2022-09-13T08:47:39;18.43;;;11.93;;
7080;SDS011;3582;51.506;11.948;2022-09-13T08:49:41;14.97;;;10.97;;
7080;SDS011;3582;51.506;11.948;2022-09-13T08:54:53;12.03;;;10.40;;
7080;SDS011;3582;51.506;11.948;2022-09-13T09:05:16;9.93;;;9.03;;
7080;SDS011;3582;51.506;11.948;2022-09-13T09:07:44;9.97;;;8.30;;
7080;SDS011;3582;51.506;11.948;2022-09-13T09:10:15;9.90;;;8.23;;
7080;SDS011;3582;51.506;11.948;2022-09-13T09:12:52;9.60;;;8.63;;
7080;SDS011;3582;51.506;11.948;2022-09-13T09:15:23;8.73;;;7.93;;
7080;SDS011;3582;51.506;11.948;2022-09-13T09:20:29;7.87;;;7.10;;
7080;SDS011;3582;51.506;11.948;2022-09-13T09:22:57;8.17;;;7.13;;
7080;SDS011;3582;51.506;11.948;2022-09-13T09:25:24;8.87;;;7.10;;
7080;SDS011;3582;51.506;11.948;2022-09-13T09:27:51;8.10;;;7.50;;
7080;SDS011;3582;51.506;11.948;2022-09-13T09:30:17;7.03;;;6.43;;
7080;SDS011;3582;51.506;11.948;2022-09-13T09:35:15;8.67;;;7.60;;
7080;SDS011;3582;51.506;11.948;2022-09-13T09:37:49;7.23;;;6.63;;
7080;SDS011;3582;51.506;11.948;2022-09-13T09:40:19;8.77;;;6.37;;
7080;SDS011;3582;51.506;11.948;2022-09-13T09:42:46;6.23;;;5.37;;
7080;SDS011;3582;51.506;11.948;2022-09-13T09:47:50;7.30;;;6.80;;
7080;SDS011;3582;51.506;11.948;2022-09-13T09:50:18;6.80;;;6.20;;
7080;SDS011;3582;51.506;11.948;2022-09-13T09:52:51;6.10;;;5.70;;
7080;SDS011;3582;51.506;11.948;2022-09-13T09:57:49;6.70;;;6.10;;
7080;SDS011;3582;51.506;11.948;2022-09-13T10:00:16;8.30;;;6.40;;
7080;SDS011;3582;51.506;11.948;2022-09-13T10:02:42;10.60;;;6.80;;
7080;SDS011;3582;51.506;11.948;2022-09-13T10:05:09;6.60;;;6.00;;
7080;SDS011;3582;51.506;11.948;2022-09-13T10:07:36;5.33;;;4.93;;
7080;SDS011;3582;51.506;11.948;2022-09-13T10:10:04;9.00;;;6.53;;
7080;SDS011;3582;51.506;11.948;2022-09-13T10:12:32;7.63;;;5.70;;
7080;SDS011;3582;51.506;11.948;2022-09-13T10:15:04;5.90;;;5.30;;
7080;SDS011;3582;51.506;11.948;2022-09-13T10:17:31;5.43;;;5.10;;
7080;SDS011;3582;51.506;11.948;2022-09-13T10:19:57;6.93;;;6.23;;
7080;SDS011;3582;51.506;11.948;2022-09-13T10:22:25;5.37;;;4.97;;
7080;SDS011;3582;51.506;11.948;2022-09-13T10:24:51;5.47;;;5.00;;
7080;SDS011;3582;51.506;11.948;2022-09-13T10:29:54;32.23;;;29.00;;
7080;SDS011;3582;51.506;11.948;2022-09-13T10:32:23;5.30;;;5.00;;
7080;SDS011;3582;51.506;11.948;2022-09-13T10:34:49;6.30;;;5.70;;
7080;SDS011;3582;51.506;11.948;2022-09-13T10:37:17;7.10;;;6.40;;
7080;SDS011;3582;51.506;11.948;2022-09-13T10:40:04;6.50;;;5.90;;
7080;SDS011;3582;51.506;11.948;2022-09-13T10:42:33;5.57;;;5.03;;
7080;SDS011;3582;51.506;11.948;2022-09-13T10:45:02;6.00;;;5.10;;
7080;SDS011;3582;51.506;11.948;2022-09-13T10:47:31;8.70;;;4.80;;
7080;SDS011;3582;51.506;11.948;2022-09-13T10:50:09;5.70;;;5.20;;
7080;SDS011;3582;51.506;11.948;2022-09-13T10:52:43;9.50;;;5.90;;
7080;SDS011;3582;51.506;11.948;2022-09-13T10:57:42;6.43;;;5.83;;
7080;SDS011;3582;51.506;11.948;2022-09-13T11:00:09;6.67;;;6.07;;
7080;SDS011;3582;51.506;11.948;2022-09-13T11:02:43;4.57;;;4.17;;
7080;SDS011;3582;51.506;11.948;2022-09-13T11:05:18;5.10;;;4.60;;
7080;SDS011;3582;51.506;11.948;2022-09-13T11:07:52;4.80;;;4.40;;
7080;SDS011;3582;51.506;11.948;2022-09-13T11:10:33;5.60;;;4.80;;
7080;SDS011;3582;51.506;11.948;2022-09-13T11:34:27;4.80;;;4.50;;
7080;SDS011;3582;51.506;11.948;2022-09-13T11:39:30;4.60;;;4.20;;
7080;SDS011;3582;51.506;11.948;2022-09-13T11:52:59;5.10;;;4.23;;
7080;SDS011;3582;51.506;11.948;2022-09-13T11:55:31;4.37;;;4.07;;
7080;SDS011;3582;51.506;11.948;2022-09-13T11:57:59;4.67;;;4.37;;
7080;SDS011;3582;51.506;11.948;2022-09-13T12:00:34;4.60;;;4.20;;
7080;SDS011;3582;51.506;11.948;2022-09-13T12:05:34;6.23;;;4.70;;
7080;SDS011;3582;51.506;11.948;2022-09-13T12:08:05;7.43;;;4.47;;
7080;SDS011;3582;51.506;11.948;2022-09-13T12:10:49;9.90;;;4.97;;
7080;SDS011;3582;51.506;11.948;2022-09-13T12:13:17;8.90;;;4.70;;
7080;SDS011;3582;51.506;11.948;2022-09-13T12:15:45;4.53;;;3.87;;
7080;SDS011;3582;51.506;11.948;2022-09-13T12:18:17;8.10;;;5.70;;
7080;SDS011;3582;51.506;11.948;2022-09-13T12:20:48;5.00;;;4.60;;
7080;SDS011;3582;51.506;11.948;2022-09-13T12:23:32;7.10;;;4.93;;
7080;SDS011;3582;51.506;11.948;2022-09-13T12:26:12;9.17;;;5.07;;
7080;SDS011;3582;51.506;11.948;2022-09-13T12:28:42;5.70;;;5.20;;
7080;SDS011;3582;51.506;11.948;2022-09-13T12:31:10;5.23;;;4.83;;
7080;SDS011;3582;51.506;11.948;2022-09-13T12:33:38;4.40;;;4.00;;
7080;SDS011;3582;51.506;11.948;2022-09-13T12:41:11;4.20;;;3.90;;
7080;SDS011;3582;51.506;11.948;2022-09-13T12:56:57;5.20;;;4.23;;
7080;SDS011;3582;51.506;11.948;2022-09-13T12:59:31;6.90;;;5.80;;
7080;SDS011;3582;51.506;11.948;2022-09-13T13:01:59;6.33;;;4.50;;
7080;SDS011;3582;51.506;11.948;2022-09-13T13:04:28;4.40;;;3.97;;
7080;SDS011;3582;51.506;11.948;2022-09-13T13:06:56;9.10;;;4.87;;
7080;SDS011;3582;51.506;11.948;2022-09-13T13:11:52;4.30;;;4.00;;
7080;SDS011;3582;51.506;11.948;2022-09-13T13:16:54;4.17;;;3.87;;
7080;SDS011;3582;51.506;11.948;2022-09-13T13:19:39;4.27;;;3.97;;
7080;SDS011;3582;51.506;11.948;2022-09-13T13:24:51;6.10;;;4.50;;
7080;SDS011;3582;51.506;11.948;2022-09-13T13:27:33;6.03;;;5.10;;
7080;SDS011;3582;51.506;11.948;2022-09-13T13:35:51;4.40;;;4.10;;
7080;SDS011;3582;51.506;11.948;2022-09-13T13:38:35;5.47;;;4.43;;
7080;SDS011;3582;51.506;11.948;2022-09-13T13:41:06;7.07;;;3.93;;
7080;SDS011;3582;51.506;11.948;2022-09-13T13:43:33;4.63;;;4.33;;
7080;SDS011;3582;51.506;11.948;2022-09-13T13:48:38;4.83;;;4.53;;
7080;SDS011;3582;51.506;11.948;2022-09-13T13:51:12;4.07;;;3.53;;
7080;SDS011;3582;51.506;11.948;2022-09-13T13:53:39;5.03;;;4.27;;
7080;SDS011;3582;51.506;11.948;2022-09-13T13:58:53;4.07;;;3.87;;
7080;SDS011;3582;51.506;11.948;2022-09-13T14:01:25;8.13;;;5.07;;
7080;SDS011;3582;51.506;11.948;2022-09-13T14:03:56;4.80;;;4.37;;
7080;SDS011;3582;51.506;11.948;2022-09-13T14:06:27;4.57;;;4.17;;
7080;SDS011;3582;51.506;11.948;2022-09-13T14:14:24;9.43;;;4.70;;
7080;SDS011;3582;51.506;11.948;2022-09-13T14:17:21;4.87;;;4.37;;
7080;SDS011;3582;51.506;11.948;2022-09-13T14:19:47;7.03;;;6.43;;
7080;SDS011;3582;51.506;11.948;2022-09-13T14:22:17;8.13;;;6.50;;
7080;SDS011;3582;51.506;11.948;2022-09-13T14:24:44;6.90;;;6.33;;
7080;SDS011;3582;51.506;11.948;2022-09-13T14:27:14;7.03;;;6.33;;
7080;SDS011;3582;51.506;11.948;2022-09-13T14:29:43;7.73;;;6.77;;
7080;SDS011;3582;51.506;11.948;2022-09-13T14:32:10;6.80;;;5.77;;
7080;SDS011;3582;51.506;11.948;2022-09-13T14:34:38;7.10;;;6.50;;
7080;SDS011;3582;51.506;11.948;2022-09-13T14:37:05;7.00;;;6.40;;
7080;SDS011;3582;51.506;11.948;2022-09-13T14:39:31;7.37;;;6.70;;
7080;SDS011;3582;51.506;11.948;2022-09-13T14:42:05;7.17;;;6.50;;
7080;SDS011;3582;51.506;11.948;2022-09-13T14:44:36;8.97;;;8.13;;
7080;SDS011;3582;51.506;11.948;2022-09-13T14:47:04;9.70;;;7.40;;
7080;SDS011;3582;51.506;11.948;2022-09-13T14:49:34;9.07;;;8.00;;
7080;SDS011;3582;51.506;11.948;2022-09-13T14:52:01;9.30;;;8.60;;
7080;SDS011;3582;51.506;11.948;2022-09-13T14:54:42;9.67;;;8.77;;
7080;SDS011;3582;51.506;11.948;2022-09-13T14:57:09;9.70;;;8.67;;
7080;SDS011;3582;51.506;11.948;2022-09-13T14:59:41;9.40;;;8.60;;
7080;SDS011;3582;51.506;11.948;2022-09-13T15:02:19;8.73;;;7.87;;
7080;SDS011;3582;51.506;11.948;2022-09-13T15:04:49;8.00;;;7.30;;
7080;SDS011;3582;51.506;11.948;2022-09-13T15:09:48;10.70;;;8.93;;
7080;SDS011;3582;51.506;11.948;2022-09-13T15:12:22;7.07;;;6.53;;
7080;SDS011;3582;51.506;11.948;2022-09-13T15:15:00;8.17;;;7.47;;
7080;SDS011;3582;51.506;11.948;2022-09-13T15:20:19;8.70;;;7.90;;
7080;SDS011;3582;51.506;11.948;2022-09-13T15:22:46;9.37;;;7.23;;
7080;SDS011;3582;51.506;11.948;2022-09-13T15:25:19;7.40;;;6.80;;
7080;SDS011;3582;51.506;11.948;2022-09-13T15:27:46;10.27;;;7.60;;
7080;SDS011;3582;51.506;11.948;2022-09-13T15:32:48;9.97;;;7.00;;
7080;SDS011;3582;51.506;11.948;2022-09-13T15:35:21;9.83;;;7.50;;
7080;SDS011;3582;51.506;11.948;2022-09-13T15:37:56;9.77;;;7.67;;
7080;SDS011;3582;51.506;11.948;2022-09-13T15:40:23;6.80;;;6.20;;
7080;SDS011;3582;51.506;11.948;2022-09-13T15:42:50;7.47;;;6.67;;
7080;SDS011;3582;51.506;11.948;2022-09-13T15:45:17;9.07;;;7.57;;
7080;SDS011;3582;51.506;11.948;2022-09-13T15:47:44;10.87;;;7.53;;
7080;SDS011;3582;51.506;11.948;2022-09-13T15:50:18;10.53;;;8.17;;
7080;SDS011;3582;51.506;11.948;2022-09-13T15:52:44;23.33;;;20.67;;
7080;SDS011;3582;51.506;11.948;2022-09-13T15:55:10;9.03;;;7.60;;
7080;SDS011;3582;51.506;11.948;2022-09-13T15:57:36;12.07;;;8.30;;
7080;SDS011;3582;51.506;11.948;2022-09-13T16:00:02;7.83;;;7.07;;
7080;SDS011;3582;51.506;11.948;2022-09-13T16:02:31;8.10;;;7.30;;
7080;SDS011;3582;51.506;11.948;2022-09-13T16:04:57;7.97;;;7.07;;
7080;SDS011;3582;51.506;11.948;2022-09-13T16:07:24;9.63;;;8.63;;
7080;SDS011;3582;51.506;11.948;2022-09-13T16:09:51;9.77;;;7.50;;
7080;SDS011;3582;51.506;11.948;2022-09-13T16:12:17;10.20;;;7.60;;
7080;SDS011;3582;51.506;11.948;2022-09-13T16:14:46;9.63;;;7.50;;
7080;SDS011;3582;51.506;11.948;2022-09-13T16:17:18;9.33;;;8.33;;
7080;SDS011;3582;51.506;11.948;2022-09-13T16:19:44;8.73;;;7.80;;
7080;SDS011;3582;51.506;11.948;2022-09-13T16:22:10;8.97;;;8.13;;
7080;SDS011;3582;51.506;11.948;2022-09-13T16:24:36;9.00;;;8.20;;
7080;SDS011;3582;51.506;11.948;2022-09-13T16:27:02;8.30;;;7.50;;
7080;SDS011;3582;51.506;11.948;2022-09-13T16:29:28;8.37;;;7.57;;
7080;SDS011;3582;51.506;11.948;2022-09-13T16:31:54;10.13;;;7.20;;
7080;SDS011;3582;51.506;11.948;2022-09-13T16:34:21;9.73;;;8.83;;
7080;SDS011;3582;51.506;11.948;2022-09-13T16:36:47;10.33;;;9.40;;
7080;SDS011;3582;51.506;11.948;2022-09-13T16:39:13;9.00;;;8.30;;
7080;SDS011;3582;51.506;11.948;2022-09-13T16:41:39;9.67;;;8.63;;
7080;SDS011;3582;51.506;11.948;2022-09-13T16:44:05;11.57;;;8.10;;
7080;SDS011;3582;51.506;11.948;2022-09-13T16:46:32;10.83;;;8.90;;
7080;SDS011;3582;51.506;11.948;2022-09-13T16:48:58;9.40;;;8.33;;
7080;SDS011;3582;51.506;11.948;2022-09-13T16:51:24;8.50;;;7.70;;
7080;SDS011;3582;51.506;11.948;2022-09-13T16:53:50;15.73;;;8.20;;
7080;SDS011;3582;51.506;11.948;2022-09-13T16:56:21;8.03;;;7.33;;
7080;SDS011;3582;51.506;11.948;2022-09-13T16:58:48;9.00;;;8.10;;
7080;SDS011;3582;51.506;11.948;2022-09-13T17:01:24;8.90;;;8.10;;
7080;SDS011;3582;51.506;11.948;2022-09-13T17:03:50;12.20;;;7.30;;
7080;SDS011;3582;51.506;11.948;2022-09-13T17:06:17;9.30;;;7.03;;
7080;SDS011;3582;51.506;11.948;2022-09-13T17:08:47;9.17;;;7.20;;
7080;SDS011;3582;51.506;11.948;2022-09-13T17:11:15;8.27;;;7.50;;
7080;SDS011;3582;51.506;11.948;2022-09-13T17:13:41;8.00;;;7.20;;
7080;SDS011;3582;51.506;11.948;2022-09-13T17:16:17;8.87;;;7.37;;
7080;SDS011;3582;51.506;11.948;2022-09-13T17:18:44;7.00;;;6.30;;
7080;SDS011;3582;51.506;11.948;2022-09-13T17:21:10;10.93;;;7.37;;
7080;SDS011;3582;51.506;11.948;2022-09-13T17:23:36;8.70;;;7.90;;
7080;SDS011;3582;51.506;11.948;2022-09-13T17:26:02;6.60;;;6.07;;
7080;SDS011;3582;51.506;11.948;2022-09-13T17:28:28;8.03;;;6.60;;